sensor_id;sensor_type;location;lat;lon;timestamp;temperature;humidity
14682;DHT22;7429;52.498;13.480;2023-02-02T00:01:28;4.80;99.90
14682;DHT22;7429;52.498;13.480;2023-02-02T00:04:35;4.70;99.90
14682;DHT22;7429;52.498;13.480;2023-02-02T00:07:38;4.80;99.90
14682;DHT22;7429;52.498;13.480;2023-02-02T00:10:42;4.90;99.90
14682;DHT22;7429;52.498;13.480;2023-02-02T00:13:45;4.90;99.90
14682;DHT22;7429;52.498;13.480;2023-02-02T00:16:50;5.00;99.90
14682;DHT22;7429;52.498;13.480;2023-02-02T00:19:55;5.00;99.90
14682;DHT22;7429;52.498;13.480;2023-02-02T00:22:59;5.00;99.90
14682;DHT22;7429;52.498;13.480;2023-02-02T00:26:02;5.00;99.90
14682;DHT22;7429;52.498;13.480;2023-02-02T00:29:06;5.00;99.90
14682;DHT22;7429;52.498;13.480;2023-02-02T00:32:11;5.10;99.90
14682;DHT22;7429;52.498;13.480;2023-02-02T00:35:16;5.10;99.90
14682;DHT22;7429;52.498;13.480;2023-02-02T00:38:19;5.20;99.90
14682;DHT22;7429;52.498;13.480;2023-02-02T00:41:24;5.10;99.90
14682;DHT22;7429;52.498;13.480;2023-02-02T00:44:28;5.20;99.90
14682;DHT22;7429;52.498;13.480;2023-02-02T00:47:49;5.20;99.90
14682;DHT22;7429;52.498;13.480;2023-02-02T00:50:53;5.20;99.90
14682;DHT22;7429;52.498;13.480;2023-02-02T00:53:58;5.20;99.90
14682;DHT22;7429;52.498;13.480;2023-02-02T00:57:01;5.20;99.90
14682;DHT22;7429;52.498;13.480;2023-02-02T01:00:07;5.10;99.90
14682;DHT22;7429;52.498;13.480;2023-02-02T01:03:13;5.20;99.90
14682;DHT22;7429;52.498;13.480;2023-02-02T01:06:18;5.20;99.90
14682;DHT22;7429;52.498;13.480;2023-02-02T01:09:24;5.20;99.90
14682;DHT22;7429;52.498;13.480;2023-02-02T01:12:34;5.10;99.90
14682;DHT22;7429;52.498;13.480;2023-02-02T01:15:39;5.20;99.90
14682;DHT22;7429;52.498;13.480;2023-02-02T01:18:42;5.00;99.90
14682;DHT22;7429;52.498;13.480;2023-02-02T01:21:47;5.10;99.90
14682;DHT22;7429;52.498;13.480;2023-02-02T01:24:54;5.10;99.90
14682;DHT22;7429;52.498;13.480;2023-02-02T01:27:57;5.00;99.90
14682;DHT22;7429;52.498;13.480;2023-02-02T01:31:05;5.00;99.90
14682;DHT22;7429;52.498;13.480;2023-02-02T01:34:12;5.00;99.90
14682;DHT22;7429;52.498;13.480;2023-02-02T01:37:17;5.00;99.90
14682;DHT22;7429;52.498;13.480;2023-02-02T01:40:20;5.00;99.90
14682;DHT22;7429;52.498;13.480;2023-02-02T01:43:26;4.90;99.90
14682;DHT22;7429;52.498;13.480;2023-02-02T01:46:32;4.80;99.90
14682;DHT22;7429;52.498;13.480;2023-02-02T01:49:36;4.90;99.90
14682;DHT22;7429;52.498;13.480;2023-02-02T01:52:42;4.90;99.90
14682;DHT22;7429;52.498;13.480;2023-02-02T01:55:48;4.90;99.90
14682;DHT22;7429;52.498;13.480;2023-02-02T01:58:54;4.90;99.90
14682;DHT22;7429;52.498;13.480;2023-02-02T02:01:58;5.00;99.90
14682;DHT22;7429;52.498;13.480;2023-02-02T02:05:04;4.90;99.90
14682;DHT22;7429;52.498;13.480;2023-02-02T02:08:14;5.00;99.90
14682;DHT22;7429;52.498;13.480;2023-02-02T02:11:20;5.00;99.90
14682;DHT22;7429;52.498;13.480;2023-02-02T02:14:24;5.00;99.90
14682;DHT22;7429;52.498;13.480;2023-02-02T02:17:53;5.00;99.90
14682;DHT22;7429;52.498;13.480;2023-02-02T02:21:28;5.00;99.90
14682;DHT22;7429;52.498;13.480;2023-02-02T02:25:17;5.00;99.90
14682;DHT22;7429;52.498;13.480;2023-02-02T02:32:33;5.10;99.90
14682;DHT22;7429;52.498;13.480;2023-02-02T02:35:47;5.20;99.90
14682;DHT22;7429;52.498;13.480;2023-02-02T02:39:08;5.20;99.90
14682;DHT22;7429;52.498;13.480;2023-02-02T02:42:19;5.30;99.90
14682;DHT22;7429;52.498;13.480;2023-02-02T02:45:26;5.30;99.90
14682;DHT22;7429;52.498;13.480;2023-02-02T02:48:31;5.30;99.90
14682;DHT22;7429;52.498;13.480;2023-02-02T02:51:44;5.30;99.90
14682;DHT22;7429;52.498;13.480;2023-02-02T02:54:54;5.30;99.90
14682;DHT22;7429;52.498;13.480;2023-02-02T02:58:05;5.40;99.90
14682;DHT22;7429;52.498;13.480;2023-02-02T03:01:13;5.40;99.90
14682;DHT22;7429;52.498;13.480;2023-02-02T03:04:29;5.40;99.90
14682;DHT22;7429;52.498;13.480;2023-02-02T03:07:39;5.40;99.90
14682;DHT22;7429;52.498;13.480;2023-02-02T03:10:45;5.40;99.90
14682;DHT22;7429;52.498;13.480;2023-02-02T03:13:48;5.50;99.90
14682;DHT22;7429;52.498;13.480;2023-02-02T03:16:52;5.40;99.90
14682;DHT22;7429;52.498;13.480;2023-02-02T03:19:57;5.50;99.90
14682;DHT22;7429;52.498;13.480;2023-02-02T03:23:00;5.50;99.90
14682;DHT22;7429;52.498;13.480;2023-02-02T03:26:04;5.50;99.90
14682;DHT22;7429;52.498;13.480;2023-02-02T03:29:07;5.50;99.90
14682;DHT22;7429;52.498;13.480;2023-02-02T03:32:11;5.50;99.90
14682;DHT22;7429;52.498;13.480;2023-02-02T03:35:16;5.50;99.90
14682;DHT22;7429;52.498;13.480;2023-02-02T03:38:21;5.50;99.90
14682;DHT22;7429;52.498;13.480;2023-02-02T03:41:24;5.40;99.90
14682;DHT22;7429;52.498;13.480;2023-02-02T03:44:27;5.50;99.90
14682;DHT22;7429;52.498;13.480;2023-02-02T03:47:31;5.50;99.90
14682;DHT22;7429;52.498;13.480;2023-02-02T03:50:36;5.40;99.90
14682;DHT22;7429;52.498;13.480;2023-02-02T03:53:39;5.50;99.90
14682;DHT22;7429;52.498;13.480;2023-02-02T03:56:45;5.40;99.90
14682;DHT22;7429;52.498;13.480;2023-02-02T03:59:48;5.40;99.90
14682;DHT22;7429;52.498;13.480;2023-02-02T04:02:52;5.40;99.90
14682;DHT22;7429;52.498;13.480;2023-02-02T04:05:57;5.40;99.90
14682;DHT22;7429;52.498;13.480;2023-02-02T04:09:00;5.30;99.90
14682;DHT22;7429;52.498;13.480;2023-02-02T04:12:04;5.40;99.90
14682;DHT22;7429;52.498;13.480;2023-02-02T04:15:08;5.40;99.90
14682;DHT22;7429;52.498;13.480;2023-02-02T04:18:11;5.40;99.90
14682;DHT22;7429;52.498;13.480;2023-02-02T04:21:16;5.40;99.90
14682;DHT22;7429;52.498;13.480;2023-02-02T04:24:19;5.40;99.90
14682;DHT22;7429;52.498;13.480;2023-02-02T04:27:25;5.40;99.90
14682;DHT22;7429;52.498;13.480;2023-02-02T04:30:28;5.40;99.90
14682;DHT22;7429;52.498;13.480;2023-02-02T04:33:33;5.40;99.90
14682;DHT22;7429;52.498;13.480;2023-02-02T04:36:38;5.40;99.90
14682;DHT22;7429;52.498;13.480;2023-02-02T04:39:41;5.40;99.90
14682;DHT22;7429;52.498;13.480;2023-02-02T04:42:44;5.40;99.90
14682;DHT22;7429;52.498;13.480;2023-02-02T04:45:47;5.40;99.90
14682;DHT22;7429;52.498;13.480;2023-02-02T04:48:58;5.30;99.90
14682;DHT22;7429;52.498;13.480;2023-02-02T04:52:02;5.40;99.90
14682;DHT22;7429;52.498;13.480;2023-02-02T04:55:06;5.30;99.90
14682;DHT22;7429;52.498;13.480;2023-02-02T04:58:10;5.30;99.90
14682;DHT22;7429;52.498;13.480;2023-02-02T05:01:16;5.40;99.90
14682;DHT22;7429;52.498;13.480;2023-02-02T05:04:21;5.40;99.90
14682;DHT22;7429;52.498;13.480;2023-02-02T05:07:26;5.40;99.90
14682;DHT22;7429;52.498;13.480;2023-02-02T05:10:29;5.40;99.90
14682;DHT22;7429;52.498;13.480;2023-02-02T05:13:33;5.40;99.90
14682;DHT22;7429;52.498;13.480;2023-02-02T05:16:37;5.40;99.90
14682;DHT22;7429;52.498;13.480;2023-02-02T05:19:41;5.40;99.90
14682;DHT22;7429;52.498;13.480;2023-02-02T05:22:47;5.30;99.90
14682;DHT22;7429;52.498;13.480;2023-02-02T05:25:51;5.30;99.90
14682;DHT22;7429;52.498;13.480;2023-02-02T05:28:55;5.20;99.90
14682;DHT22;7429;52.498;13.480;2023-02-02T05:31:59;5.20;99.90
14682;DHT22;7429;52.498;13.480;2023-02-02T05:35:02;5.20;99.90
14682;DHT22;7429;52.498;13.480;2023-02-02T05:38:07;5.20;99.90
14682;DHT22;7429;52.498;13.480;2023-02-02T05:41:10;5.20;99.90
14682;DHT22;7429;52.498;13.480;2023-02-02T05:44:15;5.20;99.90
14682;DHT22;7429;52.498;13.480;2023-02-02T05:47:19;5.10;99.90
14682;DHT22;7429;52.498;13.480;2023-02-02T05:50:22;5.20;99.90
14682;DHT22;7429;52.498;13.480;2023-02-02T05:53:37;5.20;99.90
14682;DHT22;7429;52.498;13.480;2023-02-02T05:56:40;5.20;99.90
14682;DHT22;7429;52.498;13.480;2023-02-02T05:59:43;5.20;99.90
14682;DHT22;7429;52.498;13.480;2023-02-02T06:02:47;5.20;99.90
14682;DHT22;7429;52.498;13.480;2023-02-02T06:05:51;5.30;99.90
14682;DHT22;7429;52.498;13.480;2023-02-02T06:08:55;5.30;99.90
14682;DHT22;7429;52.498;13.480;2023-02-02T06:11:58;5.20;99.90
14682;DHT22;7429;52.498;13.480;2023-02-02T06:15:02;5.20;99.90
14682;DHT22;7429;52.498;13.480;2023-02-02T06:18:06;5.20;99.90
14682;DHT22;7429;52.498;13.480;2023-02-02T06:21:09;5.20;99.90
14682;DHT22;7429;52.498;13.480;2023-02-02T06:24:14;5.30;99.90
14682;DHT22;7429;52.498;13.480;2023-02-02T06:27:19;5.30;99.90
14682;DHT22;7429;52.498;13.480;2023-02-02T06:30:22;5.30;99.90
14682;DHT22;7429;52.498;13.480;2023-02-02T06:33:25;5.30;99.90
14682;DHT22;7429;52.498;13.480;2023-02-02T06:36:29;5.30;99.90
14682;DHT22;7429;52.498;13.480;2023-02-02T06:39:33;5.30;99.90
14682;DHT22;7429;52.498;13.480;2023-02-02T06:42:37;5.20;99.90
14682;DHT22;7429;52.498;13.480;2023-02-02T06:45:40;5.30;99.90
14682;DHT22;7429;52.498;13.480;2023-02-02T06:48:43;5.30;99.90
14682;DHT22;7429;52.498;13.480;2023-02-02T06:51:49;5.30;99.90
14682;DHT22;7429;52.498;13.480;2023-02-02T06:54:57;5.20;99.90
14682;DHT22;7429;52.498;13.480;2023-02-02T06:58:05;5.20;99.90
14682;DHT22;7429;52.498;13.480;2023-02-02T07:01:12;5.30;99.90
14682;DHT22;7429;52.498;13.480;2023-02-02T07:04:16;5.20;99.90
14682;DHT22;7429;52.498;13.480;2023-02-02T07:07:20;5.20;99.90
14682;DHT22;7429;52.498;13.480;2023-02-02T07:10:27;5.20;99.90
14682;DHT22;7429;52.498;13.480;2023-02-02T07:13:50;5.30;99.90
14682;DHT22;7429;52.498;13.480;2023-02-02T07:16:55;5.30;99.90
14682;DHT22;7429;52.498;13.480;2023-02-02T07:19:59;5.20;99.90
14682;DHT22;7429;52.498;13.480;2023-02-02T07:23:02;5.20;99.90
14682;DHT22;7429;52.498;13.480;2023-02-02T07:26:08;5.20;99.90
14682;DHT22;7429;52.498;13.480;2023-02-02T07:29:14;5.20;99.90
14682;DHT22;7429;52.498;13.480;2023-02-02T07:32:17;5.20;99.90
14682;DHT22;7429;52.498;13.480;2023-02-02T07:35:20;5.20;99.90
14682;DHT22;7429;52.498;13.480;2023-02-02T07:38:24;5.20;99.90
14682;DHT22;7429;52.498;13.480;2023-02-02T07:41:33;5.20;99.90
14682;DHT22;7429;52.498;13.480;2023-02-02T07:44:37;5.20;99.90
14682;DHT22;7429;52.498;13.480;2023-02-02T07:47:40;5.10;99.90
14682;DHT22;7429;52.498;13.480;2023-02-02T07:50:44;5.10;99.90
14682;DHT22;7429;52.498;13.480;2023-02-02T07:53:50;5.10;99.90
14682;DHT22;7429;52.498;13.480;2023-02-02T07:56:57;5.00;99.90
14682;DHT22;7429;52.498;13.480;2023-02-02T08:00:02;5.10;99.90
14682;DHT22;7429;52.498;13.480;2023-02-02T08:03:13;5.00;99.90
14682;DHT22;7429;52.498;13.480;2023-02-02T08:06:18;5.00;99.90
14682;DHT22;7429;52.498;13.480;2023-02-02T08:09:25;5.00;99.90
14682;DHT22;7429;52.498;13.480;2023-02-02T08:12:29;5.10;99.90
14682;DHT22;7429;52.498;13.480;2023-02-02T08:15:32;5.20;99.90
14682;DHT22;7429;52.498;13.480;2023-02-02T08:18:36;5.20;99.90
14682;DHT22;7429;52.498;13.480;2023-02-02T08:21:42;5.20;99.90
14682;DHT22;7429;52.498;13.480;2023-02-02T08:24:46;5.20;99.90
14682;DHT22;7429;52.498;13.480;2023-02-02T08:27:53;5.20;99.90
14682;DHT22;7429;52.498;13.480;2023-02-02T08:31:03;5.30;99.90
14682;DHT22;7429;52.498;13.480;2023-02-02T08:34:07;5.30;99.90
14682;DHT22;7429;52.498;13.480;2023-02-02T08:37:10;5.30;99.90
14682;DHT22;7429;52.498;13.480;2023-02-02T08:40:14;5.40;99.90
14682;DHT22;7429;52.498;13.480;2023-02-02T08:43:18;5.40;99.90
14682;DHT22;7429;52.498;13.480;2023-02-02T08:46:23;5.40;99.90
14682;DHT22;7429;52.498;13.480;2023-02-02T08:49:26;5.50;99.90
14682;DHT22;7429;52.498;13.480;2023-02-02T08:52:30;5.50;99.90
14682;DHT22;7429;52.498;13.480;2023-02-02T08:55:33;5.50;99.90
14682;DHT22;7429;52.498;13.480;2023-02-02T08:58:43;5.60;99.90
14682;DHT22;7429;52.498;13.480;2023-02-02T09:01:47;5.50;99.90
14682;DHT22;7429;52.498;13.480;2023-02-02T09:04:50;5.50;99.90
14682;DHT22;7429;52.498;13.480;2023-02-02T09:07:53;5.60;99.90
14682;DHT22;7429;52.498;13.480;2023-02-02T09:11:02;5.60;99.90
14682;DHT22;7429;52.498;13.480;2023-02-02T09:14:11;5.70;99.90
14682;DHT22;7429;52.498;13.480;2023-02-02T09:17:16;5.80;99.90
14682;DHT22;7429;52.498;13.480;2023-02-02T09:20:19;5.90;99.90
14682;DHT22;7429;52.498;13.480;2023-02-02T09:23:23;5.90;99.90
14682;DHT22;7429;52.498;13.480;2023-02-02T09:26:28;6.00;99.90
14682;DHT22;7429;52.498;13.480;2023-02-02T09:29:33;5.90;99.90
14682;DHT22;7429;52.498;13.480;2023-02-02T09:32:36;6.00;99.90
14682;DHT22;7429;52.498;13.480;2023-02-02T09:35:39;5.90;99.90
14682;DHT22;7429;52.498;13.480;2023-02-02T09:38:43;6.00;99.90
14682;DHT22;7429;52.498;13.480;2023-02-02T09:42:06;6.00;99.90
14682;DHT22;7429;52.498;13.480;2023-02-02T09:45:21;6.10;99.90
14682;DHT22;7429;52.498;13.480;2023-02-02T09:48:33;6.10;99.90
14682;DHT22;7429;52.498;13.480;2023-02-02T09:51:43;6.10;99.90
14682;DHT22;7429;52.498;13.480;2023-02-02T09:54:52;6.10;99.90
14682;DHT22;7429;52.498;13.480;2023-02-02T09:58:05;6.20;99.90
14682;DHT22;7429;52.498;13.480;2023-02-02T10:01:17;6.20;99.90
14682;DHT22;7429;52.498;13.480;2023-02-02T10:04:25;6.30;99.90
14682;DHT22;7429;52.498;13.480;2023-02-02T10:07:34;6.30;99.90
14682;DHT22;7429;52.498;13.480;2023-02-02T10:10:40;6.30;99.90
14682;DHT22;7429;52.498;13.480;2023-02-02T10:13:46;6.20;99.90
14682;DHT22;7429;52.498;13.480;2023-02-02T10:16:53;6.20;99.90
14682;DHT22;7429;52.498;13.480;2023-02-02T10:20:02;6.30;99.90
14682;DHT22;7429;52.498;13.480;2023-02-02T10:23:21;6.20;99.90
14682;DHT22;7429;52.498;13.480;2023-02-02T10:26:34;6.20;99.90
14682;DHT22;7429;52.498;13.480;2023-02-02T10:29:47;6.10;99.90
14682;DHT22;7429;52.498;13.480;2023-02-02T10:33:05;6.20;99.90
14682;DHT22;7429;52.498;13.480;2023-02-02T10:36:46;6.20;99.90
14682;DHT22;7429;52.498;13.480;2023-02-02T10:40:35;6.20;99.90
14682;DHT22;7429;52.498;13.480;2023-02-02T10:44:09;6.30;99.90
14682;DHT22;7429;52.498;13.480;2023-02-02T10:47:23;6.40;99.90
14682;DHT22;7429;52.498;13.480;2023-02-02T10:50:29;6.40;99.90
14682;DHT22;7429;52.498;13.480;2023-02-02T10:53:35;6.50;99.90
14682;DHT22;7429;52.498;13.480;2023-02-02T10:56:41;6.70;99.90
14682;DHT22;7429;52.498;13.480;2023-02-02T10:59:56;6.70;99.90
14682;DHT22;7429;52.498;13.480;2023-02-02T11:03:09;6.70;99.90
14682;DHT22;7429;52.498;13.480;2023-02-02T11:06:15;6.60;99.90
14682;DHT22;7429;52.498;13.480;2023-02-02T11:09:38;6.60;99.90
14682;DHT22;7429;52.498;13.480;2023-02-02T11:12:46;6.60;99.90
14682;DHT22;7429;52.498;13.480;2023-02-02T11:16:25;6.60;99.90
14682;DHT22;7429;52.498;13.480;2023-02-02T11:19:47;6.60;99.90
14682;DHT22;7429;52.498;13.480;2023-02-02T11:23:00;6.60;99.90
14682;DHT22;7429;52.498;13.480;2023-02-02T11:26:04;6.70;99.90
14682;DHT22;7429;52.498;13.480;2023-02-02T11:29:14;6.80;99.90
14682;DHT22;7429;52.498;13.480;2023-02-02T11:32:30;7.00;99.90
14682;DHT22;7429;52.498;13.480;2023-02-02T11:35:34;7.10;99.90
14682;DHT22;7429;52.498;13.480;2023-02-02T11:38:41;7.00;99.90
14682;DHT22;7429;52.498;13.480;2023-02-02T11:41:45;7.00;99.90
14682;DHT22;7429;52.498;13.480;2023-02-02T11:44:50;7.00;99.90
14682;DHT22;7429;52.498;13.480;2023-02-02T11:48:00;7.00;99.90
14682;DHT22;7429;52.498;13.480;2023-02-02T11:51:06;7.00;99.90
14682;DHT22;7429;52.498;13.480;2023-02-02T11:54:24;7.10;99.90
14682;DHT22;7429;52.498;13.480;2023-02-02T11:57:29;7.20;99.90
14682;DHT22;7429;52.498;13.480;2023-02-02T12:00:45;7.10;99.90
14682;DHT22;7429;52.498;13.480;2023-02-02T12:03:59;7.00;99.90
14682;DHT22;7429;52.498;13.480;2023-02-02T12:07:21;6.90;99.90
14682;DHT22;7429;52.498;13.480;2023-02-02T12:10:34;6.90;99.90
14682;DHT22;7429;52.498;13.480;2023-02-02T12:13:49;7.10;99.90
14682;DHT22;7429;52.498;13.480;2023-02-02T12:17:11;7.10;99.90
14682;DHT22;7429;52.498;13.480;2023-02-02T12:20:32;7.10;99.90
14682;DHT22;7429;52.498;13.480;2023-02-02T12:23:56;7.00;99.90
14682;DHT22;7429;52.498;13.480;2023-02-02T12:27:22;6.90;99.90
14682;DHT22;7429;52.498;13.480;2023-02-02T12:30:37;6.70;99.90
14682;DHT22;7429;52.498;13.480;2023-02-02T12:33:50;6.60;99.90
14682;DHT22;7429;52.498;13.480;2023-02-02T12:37:01;6.50;99.90
14682;DHT22;7429;52.498;13.480;2023-02-02T12:40:22;6.30;99.90
14682;DHT22;7429;52.498;13.480;2023-02-02T12:43:38;6.10;99.90
14682;DHT22;7429;52.498;13.480;2023-02-02T12:46:52;6.10;99.90
14682;DHT22;7429;52.498;13.480;2023-02-02T12:50:07;6.10;99.90
14682;DHT22;7429;52.498;13.480;2023-02-02T12:53:29;6.20;99.90
14682;DHT22;7429;52.498;13.480;2023-02-02T12:56:45;6.30;99.90
14682;DHT22;7429;52.498;13.480;2023-02-02T13:00:05;6.50;99.90
14682;DHT22;7429;52.498;13.480;2023-02-02T13:03:24;6.60;99.90
14682;DHT22;7429;52.498;13.480;2023-02-02T13:06:51;6.80;99.90
14682;DHT22;7429;52.498;13.480;2023-02-02T13:10:11;6.90;99.90
14682;DHT22;7429;52.498;13.480;2023-02-02T13:13:23;7.00;99.90
14682;DHT22;7429;52.498;13.480;2023-02-02T13:16:31;7.10;99.90
14682;DHT22;7429;52.498;13.480;2023-02-02T13:19:40;7.10;99.90
14682;DHT22;7429;52.498;13.480;2023-02-02T13:22:44;7.20;99.90
14682;DHT22;7429;52.498;13.480;2023-02-02T13:25:53;7.20;99.90
14682;DHT22;7429;52.498;13.480;2023-02-02T13:29:05;7.00;99.90
14682;DHT22;7429;52.498;13.480;2023-02-02T13:32:18;6.90;99.90
14682;DHT22;7429;52.498;13.480;2023-02-02T13:35:30;6.90;99.90
14682;DHT22;7429;52.498;13.480;2023-02-02T13:38:36;6.90;99.90
14682;DHT22;7429;52.498;13.480;2023-02-02T13:41:43;6.80;99.90
14682;DHT22;7429;52.498;13.480;2023-02-02T13:44:51;6.80;99.90
14682;DHT22;7429;52.498;13.480;2023-02-02T13:48:01;6.90;99.90
14682;DHT22;7429;52.498;13.480;2023-02-02T13:51:45;6.90;99.90
14682;DHT22;7429;52.498;13.480;2023-02-02T13:55:25;6.80;99.90
14682;DHT22;7429;52.498;13.480;2023-02-02T13:58:56;6.80;99.90
14682;DHT22;7429;52.498;13.480;2023-02-02T14:02:17;6.80;99.90
14682;DHT22;7429;52.498;13.480;2023-02-02T14:05:30;6.70;99.90
14682;DHT22;7429;52.498;13.480;2023-02-02T14:08:36;6.70;99.90
14682;DHT22;7429;52.498;13.480;2023-02-02T14:11:54;6.70;99.90
14682;DHT22;7429;52.498;13.480;2023-02-02T14:15:04;6.50;99.90
14682;DHT22;7429;52.498;13.480;2023-02-02T14:18:11;6.40;99.90
14682;DHT22;7429;52.498;13.480;2023-02-02T14:25:46;6.10;99.90
14682;DHT22;7429;52.498;13.480;2023-02-02T14:28:56;6.10;99.90
14682;DHT22;7429;52.498;13.480;2023-02-02T14:32:02;6.00;99.90
14682;DHT22;7429;52.498;13.480;2023-02-02T14:35:57;6.00;99.90
14682;DHT22;7429;52.498;13.480;2023-02-02T14:39:17;5.90;99.90
14682;DHT22;7429;52.498;13.480;2023-02-02T14:42:33;5.90;99.90
14682;DHT22;7429;52.498;13.480;2023-02-02T14:46:22;5.80;99.90
14682;DHT22;7429;52.498;13.480;2023-02-02T14:49:32;5.80;99.90
14682;DHT22;7429;52.498;13.480;2023-02-02T14:52:37;5.70;99.90
14682;DHT22;7429;52.498;13.480;2023-02-02T14:55:52;5.70;99.90
14682;DHT22;7429;52.498;13.480;2023-02-02T14:58:59;5.60;99.90
14682;DHT22;7429;52.498;13.480;2023-02-02T15:02:18;5.60;99.90
14682;DHT22;7429;52.498;13.480;2023-02-02T15:05:37;5.60;99.90
14682;DHT22;7429;52.498;13.480;2023-02-02T15:09:31;5.60;99.90
14682;DHT22;7429;52.498;13.480;2023-02-02T15:12:43;5.60;99.90
14682;DHT22;7429;52.498;13.480;2023-02-02T15:15:48;5.60;99.90
14682;DHT22;7429;52.498;13.480;2023-02-02T15:19:00;5.60;99.90
14682;DHT22;7429;52.498;13.480;2023-02-02T15:22:21;5.50;99.90
14682;DHT22;7429;52.498;13.480;2023-02-02T15:25:30;5.50;99.90
14682;DHT22;7429;52.498;13.480;2023-02-02T15:28:41;5.40;99.90
14682;DHT22;7429;52.498;13.480;2023-02-02T15:31:50;5.30;99.90
14682;DHT22;7429;52.498;13.480;2023-02-02T15:34:58;5.30;99.90
14682;DHT22;7429;52.498;13.480;2023-02-02T15:38:06;5.20;99.90
14682;DHT22;7429;52.498;13.480;2023-02-02T15:41:18;5.20;99.90
14682;DHT22;7429;52.498;13.480;2023-02-02T15:44:27;5.10;99.90
14682;DHT22;7429;52.498;13.480;2023-02-02T15:47:37;5.10;99.90
14682;DHT22;7429;52.498;13.480;2023-02-02T15:50:43;5.00;99.90
14682;DHT22;7429;52.498;13.480;2023-02-02T15:53:48;5.00;99.90
14682;DHT22;7429;52.498;13.480;2023-02-02T15:56:54;4.90;99.90
14682;DHT22;7429;52.498;13.480;2023-02-02T16:00:02;4.80;99.90
14682;DHT22;7429;52.498;13.480;2023-02-02T16:03:29;4.70;99.90
14682;DHT22;7429;52.498;13.480;2023-02-02T16:06:36;4.70;99.90
14682;DHT22;7429;52.498;13.480;2023-02-02T16:09:40;4.60;99.90
14682;DHT22;7429;52.498;13.480;2023-02-02T16:12:44;4.50;99.90
14682;DHT22;7429;52.498;13.480;2023-02-02T16:15:55;4.50;99.90
14682;DHT22;7429;52.498;13.480;2023-02-02T16:19:11;4.50;99.90
14682;DHT22;7429;52.498;13.480;2023-02-02T16:22:22;4.40;99.90
14682;DHT22;7429;52.498;13.480;2023-02-02T16:25:29;4.40;99.90
14682;DHT22;7429;52.498;13.480;2023-02-02T16:28:34;4.30;99.90
14682;DHT22;7429;52.498;13.480;2023-02-02T16:31:39;4.30;99.90
14682;DHT22;7429;52.498;13.480;2023-02-02T16:34:45;4.20;99.90
14682;DHT22;7429;52.498;13.480;2023-02-02T16:37:49;4.10;99.90
14682;DHT22;7429;52.498;13.480;2023-02-02T16:41:04;4.10;99.90
14682;DHT22;7429;52.498;13.480;2023-02-02T16:44:28;4.00;99.90
14682;DHT22;7429;52.498;13.480;2023-02-02T16:47:36;4.00;99.90
14682;DHT22;7429;52.498;13.480;2023-02-02T16:50:40;4.00;99.90
14682;DHT22;7429;52.498;13.480;2023-02-02T16:53:46;3.90;99.90
14682;DHT22;7429;52.498;13.480;2023-02-02T16:56:51;3.90;99.90
14682;DHT22;7429;52.498;13.480;2023-02-02T17:00:05;3.90;99.90
14682;DHT22;7429;52.498;13.480;2023-02-02T17:03:15;3.90;99.90
14682;DHT22;7429;52.498;13.480;2023-02-02T17:06:26;3.90;99.90
14682;DHT22;7429;52.498;13.480;2023-02-02T17:09:47;3.90;99.90
14682;DHT22;7429;52.498;13.480;2023-02-02T17:12:52;3.80;99.90
14682;DHT22;7429;52.498;13.480;2023-02-02T17:15:56;3.70;99.90
14682;DHT22;7429;52.498;13.480;2023-02-02T17:19:02;3.70;99.90
14682;DHT22;7429;52.498;13.480;2023-02-02T17:22:05;3.70;99.90
14682;DHT22;7429;52.498;13.480;2023-02-02T17:25:13;3.70;99.90
14682;DHT22;7429;52.498;13.480;2023-02-02T17:28:19;3.60;99.90
14682;DHT22;7429;52.498;13.480;2023-02-02T17:31:24;3.60;99.90
14682;DHT22;7429;52.498;13.480;2023-02-02T17:34:29;3.50;99.90
14682;DHT22;7429;52.498;13.480;2023-02-02T17:37:32;3.50;99.90
14682;DHT22;7429;52.498;13.480;2023-02-02T17:40:36;3.40;99.90
14682;DHT22;7429;52.498;13.480;2023-02-02T17:43:40;3.40;99.90
14682;DHT22;7429;52.498;13.480;2023-02-02T17:46:44;3.40;99.90
14682;DHT22;7429;52.498;13.480;2023-02-02T17:49:49;3.30;99.90
14682;DHT22;7429;52.498;13.480;2023-02-02T17:52:52;3.40;99.90
14682;DHT22;7429;52.498;13.480;2023-02-02T17:55:55;3.30;99.90
14682;DHT22;7429;52.498;13.480;2023-02-02T17:58:59;3.30;99.90
14682;DHT22;7429;52.498;13.480;2023-02-02T18:02:03;3.30;99.90
14682;DHT22;7429;52.498;13.480;2023-02-02T18:05:08;3.10;99.90
14682;DHT22;7429;52.498;13.480;2023-02-02T18:08:13;3.10;99.90
14682;DHT22;7429;52.498;13.480;2023-02-02T18:11:16;3.00;99.90
14682;DHT22;7429;52.498;13.480;2023-02-02T18:14:19;3.10;99.90
14682;DHT22;7429;52.498;13.480;2023-02-02T18:17:23;3.00;99.90
14682;DHT22;7429;52.498;13.480;2023-02-02T18:20:27;3.00;99.90
14682;DHT22;7429;52.498;13.480;2023-02-02T18:23:30;2.90;99.90
14682;DHT22;7429;52.498;13.480;2023-02-02T18:26:33;2.90;99.90
14682;DHT22;7429;52.498;13.480;2023-02-02T18:29:37;2.80;99.90
14682;DHT22;7429;52.498;13.480;2023-02-02T18:32:40;2.70;99.90
14682;DHT22;7429;52.498;13.480;2023-02-02T18:35:46;2.60;99.90
14682;DHT22;7429;52.498;13.480;2023-02-02T18:38:50;2.60;99.90
14682;DHT22;7429;52.498;13.480;2023-02-02T18:41:55;2.50;99.90
14682;DHT22;7429;52.498;13.480;2023-02-02T18:44:58;2.40;99.90
14682;DHT22;7429;52.498;13.480;2023-02-02T18:48:02;2.30;99.90
14682;DHT22;7429;52.498;13.480;2023-02-02T18:51:11;2.20;99.90
14682;DHT22;7429;52.498;13.480;2023-02-02T18:54:16;2.20;99.90
14682;DHT22;7429;52.498;13.480;2023-02-02T18:57:20;2.20;99.90
14682;DHT22;7429;52.498;13.480;2023-02-02T19:00:26;2.10;99.90
14682;DHT22;7429;52.498;13.480;2023-02-02T19:03:30;2.00;99.90
14682;DHT22;7429;52.498;13.480;2023-02-02T19:06:36;2.00;99.90
14682;DHT22;7429;52.498;13.480;2023-02-02T19:09:57;2.00;99.90
14682;DHT22;7429;52.498;13.480;2023-02-02T19:13:10;1.90;99.90
14682;DHT22;7429;52.498;13.480;2023-02-02T19:16:22;1.90;99.90
14682;DHT22;7429;52.498;13.480;2023-02-02T19:19:28;1.70;99.90
14682;DHT22;7429;52.498;13.480;2023-02-02T19:22:36;1.70;99.90
14682;DHT22;7429;52.498;13.480;2023-02-02T19:25:41;1.70;99.90
14682;DHT22;7429;52.498;13.480;2023-02-02T19:28:48;1.70;99.90
14682;DHT22;7429;52.498;13.480;2023-02-02T19:31:52;1.60;99.90
14682;DHT22;7429;52.498;13.480;2023-02-02T19:34:59;1.60;99.90
14682;DHT22;7429;52.498;13.480;2023-02-02T19:38:09;1.60;99.90
14682;DHT22;7429;52.498;13.480;2023-02-02T19:41:18;1.50;99.90
14682;DHT22;7429;52.498;13.480;2023-02-02T19:44:23;1.40;99.90
14682;DHT22;7429;52.498;13.480;2023-02-02T19:47:30;1.40;99.90
14682;DHT22;7429;52.498;13.480;2023-02-02T19:50:36;1.30;99.90
14682;DHT22;7429;52.498;13.480;2023-02-02T19:53:43;1.30;99.90
14682;DHT22;7429;52.498;13.480;2023-02-02T19:56:50;1.40;99.90
14682;DHT22;7429;52.498;13.480;2023-02-02T19:59:55;1.30;99.90
14682;DHT22;7429;52.498;13.480;2023-02-02T20:03:02;1.30;99.90
14682;DHT22;7429;52.498;13.480;2023-02-02T20:06:11;1.30;99.90
14682;DHT22;7429;52.498;13.480;2023-02-02T20:09:19;1.30;99.90
14682;DHT22;7429;52.498;13.480;2023-02-02T20:12:26;1.30;99.90
14682;DHT22;7429;52.498;13.480;2023-02-02T20:15:32;1.40;99.90
14682;DHT22;7429;52.498;13.480;2023-02-02T20:18:40;1.30;99.90